Time;durP1;ratioP1;P1;durP2;ratioP2;P2;SDS_P1;SDS_P2;PMS_P1;PMS_P2;Temp;Humidity;BMP_temperature;BMP_pressure;BME280_temperature;BME280_humidity;BME280_pressure;Samples;Min_cycle;Max_cycle;Signal;HPM_P1;HPM_P2
2023/12/11 00:01:38;;;;;;;0.00;0.00;;;;;;;9.64;100.00;97799.72;5155895;27;20239;-52
2023/12/11 00:04:25;;;;;;;0.10;0.10;;;;;;;9.57;100.00;97794.13;5156041;27;20192;-52
2023/12/11 00:07:12;;;;;;;0.10;0.10;;;;;;;9.61;100.00;97779.69;5155798;27;20301;-52
2023/12/11 00:09:59;;;;;;;0.10;0.10;;;;;;;9.61;100.00;97787.59;5155682;27;20193;-52
2023/12/11 00:12:47;;;;;;;0.00;0.00;;;;;;;9.59;100.00;97786.06;5155489;27;20284;-52
2023/12/11 00:15:34;;;;;;;0.00;0.00;;;;;;;9.62;100.00;97789.28;5138712;27;20196;-52
2023/12/11 00:18:21;;;;;;;0.00;0.00;;;;;;;9.65;100.00;97786.41;5155593;27;20201;-52
2023/12/11 00:21:08;;;;;;;0.00;0.00;;;;;;;9.64;100.00;97792.63;5155506;27;20226;-52
2023/12/11 00:23:55;;;;;;;0.00;0.00;;;;;;;9.54;100.00;97786.44;5155641;27;20192;-52
2023/12/11 00:26:42;;;;;;;0.00;0.00;;;;;;;9.63;100.00;97790.97;5155581;27;20193;-52
2023/12/11 00:29:30;;;;;;;0.00;0.00;;;;;;;9.57;100.00;97793.28;5154271;27;20196;-51
2023/12/11 00:32:17;;;;;;;0.03;0.03;;;;;;;9.55;100.00;97789.91;5155584;27;20226;-52
2023/12/11 00:35:04;;;;;;;0.00;0.00;;;;;;;9.47;100.00;97790.56;5155123;27;20285;-51
2023/12/11 00:37:51;;;;;;;0.10;0.10;;;;;;;9.26;100.00;97790.47;5155229;27;20635;-52
2023/12/11 00:40:38;;;;;;;0.00;0.00;;;;;;;9.05;100.00;97794.84;5155309;27;20208;-52
2023/12/11 00:43:25;;;;;;;0.00;0.00;;;;;;;9.00;100.00;97797.03;5155245;27;20205;-52
2023/12/11 00:46:14;;;;;;;0.00;0.00;;;;;;;8.92;100.00;97807.34;5153879;27;20192;-52
2023/12/11 00:49:02;;;;;;;0.00;0.00;;;;;;;8.90;100.00;97812.75;5155047;27;20579;-52
2023/12/11 00:51:52;;;;;;;0.00;0.00;;;;;;;8.86;100.00;97803.38;5155157;27;20183;-52
2023/12/11 00:54:39;;;;;;;0.00;0.00;;;;;;;8.84;100.00;97800.84;5154671;27;20730;-51
2023/12/11 00:57:26;;;;;;;0.00;0.00;;;;;;;8.89;100.00;97808.44;5155161;27;20193;-52
2023/12/11 01:00:14;;;;;;;0.00;0.00;;;;;;;8.89;100.00;97804.00;5153625;27;20216;-52
2023/12/11 01:03:03;;;;;;;0.00;0.00;;;;;;;8.92;100.00;97802.06;5154937;27;20234;-52
2023/12/11 01:05:49;;;;;;;0.00;0.00;;;;;;;9.09;100.00;97812.97;5154992;27;20208;-52
2023/12/11 01:08:38;;;;;;;0.03;0.03;;;;;;;9.09;100.00;97804.22;5154889;27;20207;-52
2023/12/11 01:11:25;;;;;;;0.00;0.00;;;;;;;9.07;100.00;97806.97;5154761;27;20234;-53
2023/12/11 01:14:12;;;;;;;0.00;0.00;;;;;;;9.10;100.00;97797.97;5153315;27;20242;-52
2023/12/11 01:16:59;;;;;;;0.00;0.00;;;;;;;9.17;100.00;97801.81;5154652;27;20286;-52
2023/12/11 01:20:08;;;;;;;0.00;0.00;;;;;;;9.22;100.00;97804.91;5154641;27;20192;-52
2023/12/11 01:22:55;;;;;;;0.00;0.00;;;;;;;9.12;100.00;97814.53;5154543;27;20185;-52
2023/12/11 01:25:42;;;;;;;0.00;0.00;;;;;;;9.14;100.00;97816.06;5154472;27;20234;-51
2023/12/11 01:28:29;;;;;;;0.00;0.00;;;;;;;9.27;100.00;97826.53;5154226;27;20467;-52
2023/12/11 01:31:15;;;;;;;0.00;0.00;;;;;;;9.36;100.00;97822.28;5153357;27;20216;-52
2023/12/11 01:34:02;;;;;;;0.00;0.00;;;;;;;9.47;100.00;97811.69;5154304;27;20204;-52
2023/12/11 01:36:51;;;;;;;0.00;0.00;;;;;;;9.49;100.00;97812.41;5138585;27;20666;-52
2023/12/11 01:39:37;;;;;;;0.00;0.00;;;;;;;9.57;100.00;97815.28;5154231;27;20662;-51
2023/12/11 01:42:24;;;;;;;0.00;0.00;;;;;;;9.60;100.00;97812.38;5154322;27;20219;-52
2023/12/11 01:45:11;;;;;;;0.00;0.00;;;;;;;9.60;100.00;97812.38;5153245;27;20188;-51
2023/12/11 01:47:58;;;;;;;0.10;0.10;;;;;;;9.61;100.00;97808.75;5154357;27;20192;-52
2023/12/11 01:50:45;;;;;;;0.00;0.00;;;;;;;9.64;100.00;97813.78;5154198;27;20682;-51
2023/12/11 01:53:34;;;;;;;0.00;0.00;;;;;;;9.69;100.00;97822.19;5154129;27;20204;-52
2023/12/11 01:56:21;;;;;;;0.10;0.10;;;;;;;9.67;100.00;97810.91;5154060;27;20278;-52
2023/12/11 01:59:08;;;;;;;0.00;0.00;;;;;;;9.71;100.00;97808.84;5155814;27;20702;-52
2023/12/11 02:01:55;;;;;;;0.00;0.00;;;;;;;9.68;100.00;97815.22;5158540;27;20554;-52
2023/12/11 02:04:42;;;;;;;0.00;0.00;;;;;;;9.64;100.00;97805.00;5158345;27;20200;-52
2023/12/11 02:07:29;;;;;;;0.00;0.00;;;;;;;9.64;100.00;97805.84;5158499;27;20631;-52
2023/12/11 02:10:18;;;;;;;0.00;0.00;;;;;;;9.69;100.00;97801.03;5158091;27;20238;-51
2023/12/11 02:13:05;;;;;;;0.10;0.10;;;;;;;9.60;100.00;97801.78;5158205;27;20189;-51
2023/12/11 02:15:52;;;;;;;0.00;0.00;;;;;;;9.71;100.00;97792.97;5156238;27;20330;-52
2023/12/11 02:18:39;;;;;;;0.10;0.10;;;;;;;9.67;100.00;97791.56;5158025;27;20188;-52
2023/12/11 02:21:26;;;;;;;0.10;0.10;;;;;;;9.67;100.00;97804.78;5157914;27;20859;-52
2023/12/11 02:24:19;;;;;;;0.00;0.00;;;;;;;9.71;100.00;97801.75;5157870;27;20815;-52
2023/12/11 02:27:07;;;;;;;0.00;0.00;;;;;;;9.83;100.00;97793.75;5157592;27;20239;-51
2023/12/11 02:29:56;;;;;;;0.00;0.00;;;;;;;9.83;100.00;97791.97;5156656;27;20235;-51
2023/12/11 02:32:42;;;;;;;0.00;0.00;;;;;;;9.87;100.00;97790.75;5157515;27;20197;-52
2023/12/11 02:35:29;;;;;;;0.00;0.00;;;;;;;9.70;100.00;97778.91;5157436;27;20213;-52
2023/12/11 02:38:16;;;;;;;0.00;0.00;;;;;;;9.65;100.00;97796.97;5157700;27;20291;-51
2023/12/11 02:41:05;;;;;;;0.00;0.00;;;;;;;9.48;100.00;97781.66;5157087;27;20198;-51
2023/12/11 02:43:53;;;;;;;0.00;0.00;;;;;;;9.34;100.00;97779.28;5157360;27;20217;-52
2023/12/11 02:46:40;;;;;;;0.10;0.10;;;;;;;9.18;100.00;97777.06;5157397;27;20307;-52
2023/12/11 02:49:26;;;;;;;0.10;0.10;;;;;;;9.09;100.00;97780.44;5157157;27;20275;-52
2023/12/11 02:52:13;;;;;;;0.10;0.10;;;;;;;9.18;100.00;97785.00;5157454;27;20193;-52
2023/12/11 02:55:00;;;;;;;0.00;0.00;;;;;;;9.30;100.00;97789.28;5157140;27;20209;-51
2023/12/11 02:57:47;;;;;;;0.00;0.00;;;;;;;9.26;100.00;97774.63;5157170;27;20265;-52
2023/12/11 03:00:35;;;;;;;0.00;0.00;;;;;;;9.22;100.00;97777.66;5156078;27;20201;-51
2023/12/11 03:03:23;;;;;;;0.00;0.00;;;;;;;9.19;100.00;97768.16;5157304;27;20241;-52
2023/12/11 03:06:17;;;;;;;0.03;0.03;;;;;;;9.29;100.00;97778.84;5156755;27;20262;-52
2023/12/11 03:09:04;;;;;;;0.10;0.10;;;;;;;9.33;100.00;97777.59;5156982;27;20208;-52
2023/12/11 03:11:52;;;;;;;0.00;0.00;;;;;;;9.29;100.00;97770.91;5156581;27;20306;-52
2023/12/11 03:14:39;;;;;;;0.00;0.00;;;;;;;9.33;100.00;97774.97;5155528;27;20238;-52
2023/12/11 03:17:27;;;;;;;0.00;0.00;;;;;;;9.39;100.00;97774.47;5157001;27;20200;-52
2023/12/11 03:20:14;;;;;;;0.00;0.00;;;;;;;9.44;100.00;97773.13;5156911;27;20360;-52
2023/12/11 03:23:01;;;;;;;0.00;0.00;;;;;;;9.43;100.00;97763.53;5156749;27;20201;-52
2023/12/11 03:25:48;;;;;;;0.00;0.00;;;;;;;9.48;100.00;97749.94;5156812;27;20632;-52
2023/12/11 03:28:35;;;;;;;0.00;0.00;;;;;;;9.47;100.00;97753.56;5156354;27;20225;-52
2023/12/11 03:31:22;;;;;;;0.10;0.10;;;;;;;9.60;100.00;97756.84;5155253;27;20314;-52
2023/12/11 03:34:11;;;;;;;0.00;0.00;;;;;;;9.66;100.00;97750.25;5156704;27;20242;-52
2023/12/11 03:36:57;;;;;;;0.10;0.10;;;;;;;9.77;100.00;97749.34;5156491;27;20241;-52
2023/12/11 03:39:44;;;;;;;0.00;0.00;;;;;;;9.74;100.00;97750.41;5156260;27;20200;-53
2023/12/11 03:42:31;;;;;;;0.00;0.00;;;;;;;9.71;100.00;97743.59;5156358;27;20200;-52
2023/12/11 03:45:18;;;;;;;0.00;0.00;;;;;;;9.74;100.00;97740.69;5155125;27;20189;-52
2023/12/11 03:48:05;;;;;;;0.10;0.10;;;;;;;9.77;100.00;97736.13;5156365;27;20196;-52
2023/12/11 03:50:53;;;;;;;0.00;0.00;;;;;;;9.79;100.00;97731.53;5156063;27;20213;-52
2023/12/11 03:53:40;;;;;;;0.00;0.00;;;;;;;9.77;100.00;97723.75;5156105;27;20200;-52
2023/12/11 03:56:27;;;;;;;0.00;0.00;;;;;;;9.71;100.00;97724.25;5155774;27;20305;-52
2023/12/11 03:59:14;;;;;;;0.00;0.00;;;;;;;9.65;100.00;97720.31;5154705;27;20295;-51
2023/12/11 04:02:01;;;;;;;0.00;0.00;;;;;;;9.68;100.00;97717.41;5156052;27;20200;-52
2023/12/11 04:04:48;;;;;;;0.07;0.07;;;;;;;9.77;100.00;97726.38;5155840;27;20270;-52
2023/12/11 04:07:36;;;;;;;0.00;0.00;;;;;;;9.82;100.00;97723.34;5155891;27;20189;-52
2023/12/11 04:10:23;;;;;;;0.10;0.10;;;;;;;9.84;100.00;97719.59;5155717;27;20189;-52
2023/12/11 04:13:10;;;;;;;0.00;0.00;;;;;;;9.87;100.00;97721.16;5155765;27;20192;-52
2023/12/11 04:15:57;;;;;;;0.00;0.00;;;;;;;9.89;100.00;97740.38;5154214;27;20694;-52
2023/12/11 04:18:44;;;;;;;0.03;0.03;;;;;;;9.92;100.00;97726.88;5155708;27;20204;-51
2023/12/11 04:21:30;;;;;;;0.00;0.00;;;;;;;9.99;100.00;97728.88;5154874;27;20184;-51
2023/12/11 04:24:19;;;;;;;0.00;0.00;;;;;;;10.03;100.00;97732.94;5155668;27;20193;-52
2023/12/11 04:27:05;;;;;;;0.00;0.00;;;;;;;9.98;100.00;97727.22;5155578;27;20229;-52
2023/12/11 04:29:52;;;;;;;0.10;0.10;;;;;;;9.99;100.00;97726.25;5154158;27;20352;-52
2023/12/11 04:32:39;;;;;;;0.00;0.00;;;;;;;9.99;100.00;97726.25;5155520;27;20737;-52
2023/12/11 04:35:26;;;;;;;0.00;0.00;;;;;;;9.95;100.00;97722.19;5155171;27;20213;-52
2023/12/11 04:38:13;;;;;;;0.10;0.10;;;;;;;9.98;100.00;97721.09;5155580;27;20189;-51
2023/12/11 04:41:01;;;;;;;0.10;0.10;;;;;;;9.96;100.00;97723.03;5155516;27;20314;-52
2023/12/11 04:43:48;;;;;;;0.10;0.10;;;;;;;9.96;100.00;97718.56;5155438;27;20315;-52
2023/12/11 04:46:35;;;;;;;0.00;0.00;;;;;;;9.96;100.00;97718.56;5155384;27;20192;-52
2023/12/11 04:49:22;;;;;;;0.03;0.03;;;;;;;10.00;100.00;97712.03;5155112;27;20197;-52
2023/12/11 04:52:09;;;;;;;0.00;0.00;;;;;;;10.03;100.00;97722.34;5155034;27;20189;-52
2023/12/11 04:54:57;;;;;;;0.10;0.10;;;;;;;10.06;100.00;97709.88;5155031;27;20193;-52
2023/12/11 04:57:45;;;;;;;0.00;0.00;;;;;;;10.05;100.00;97722.25;5154859;27;20639;-52
2023/12/11 05:00:32;;;;;;;0.10;0.10;;;;;;;10.07;100.00;97715.03;5153614;27;20269;-52
2023/12/11 05:03:19;;;;;;;0.00;0.00;;;;;;;10.02;100.00;97707.47;5154987;27;20245;-52
2023/12/11 05:06:07;;;;;;;0.00;0.00;;;;;;;9.99;100.00;97705.09;5154914;27;20189;-51
2023/12/11 05:08:53;;;;;;;0.10;0.10;;;;;;;10.00;100.00;97695.34;5154772;27;20254;-52
2023/12/11 05:11:40;;;;;;;0.10;0.10;;;;;;;9.96;100.00;97708.00;5154886;27;20210;-52
2023/12/11 05:14:29;;;;;;;0.00;0.00;;;;;;;9.99;100.00;97697.16;5153300;27;20254;-52
2023/12/11 05:17:15;;;;;;;0.10;0.10;;;;;;;10.02;100.00;97688.09;5154356;27;20212;-52
2023/12/11 05:20:02;;;;;;;0.00;0.00;;;;;;;9.87;100.00;97681.50;5154728;27;20197;-52
2023/12/11 05:22:49;;;;;;;0.00;0.00;;;;;;;9.88;100.00;97694.59;5154751;27;20188;-52
2023/12/11 05:25:35;;;;;;;0.00;0.00;;;;;;;9.77;100.00;97689.38;5154475;27;20188;-52
2023/12/11 05:28:22;;;;;;;0.03;0.03;;;;;;;9.81;100.00;97689.94;5154048;27;20236;-52
2023/12/11 05:31:11;;;;;;;0.10;0.10;;;;;;;9.71;100.00;97692.53;5153080;27;20192;-52
2023/12/11 05:33:57;;;;;;;0.10;0.10;;;;;;;9.84;100.00;97685.22;5154245;27;20196;-52
2023/12/11 05:36:44;;;;;;;0.10;0.10;;;;;;;9.96;100.00;97700.06;5154224;27;20250;-52
2023/12/11 05:39:31;;;;;;;0.00;0.00;;;;;;;9.70;100.00;97696.97;5154489;27;20200;-52
2023/12/11 05:42:18;;;;;;;0.00;0.00;;;;;;;9.73;100.00;97696.69;5154180;27;20188;-52
2023/12/11 05:45:06;;;;;;;0.00;0.00;;;;;;;9.71;100.00;97690.72;5153154;27;20200;-52
2023/12/11 05:47:54;;;;;;;0.00;0.00;;;;;;;9.79;100.00;97692.72;5154271;27;20287;-52
2023/12/11 05:50:41;;;;;;;0.00;0.00;;;;;;;9.92;100.00;97697.78;5154122;27;20192;-52
2023/12/11 05:53:28;;;;;;;0.07;0.07;;;;;;;10.02;100.00;97675.72;5154330;27;20198;-52
2023/12/11 05:56:15;;;;;;;0.07;0.07;;;;;;;10.03;100.00;97672.09;5154238;27;20201;-52
2023/12/11 05:59:02;;;;;;;0.10;0.10;;;;;;;10.15;100.00;97674.69;5153529;27;20258;-52
2023/12/11 06:01:49;;;;;;;0.00;0.00;;;;;;;10.11;100.00;97647.66;5154505;27;20281;-52
2023/12/11 06:04:37;;;;;;;0.10;0.10;;;;;;;10.00;100.00;97658.31;5154229;27;20189;-52
2023/12/11 06:07:24;;;;;;;0.10;0.10;;;;;;;9.45;100.00;97653.25;5153982;27;20189;-52
2023/12/11 06:10:11;;;;;;;0.00;0.00;;;;;;;9.51;100.00;97664.28;5154226;27;20193;-52
2023/12/11 06:12:58;;;;;;;0.00;0.00;;;;;;;9.29;100.00;97665.22;5154071;27;20193;-52
2023/12/11 06:15:45;;;;;;;0.00;0.00;;;;;;;9.09;100.00;97680.91;5152557;27;20322;-52
2023/12/11 06:18:32;;;;;;;0.00;0.00;;;;;;;8.95;100.00;97664.50;5154040;27;20661;-52
2023/12/11 06:21:20;;;;;;;0.00;0.00;;;;;;;8.77;100.00;97664.19;5153849;27;20193;-52
2023/12/11 06:24:08;;;;;;;0.00;0.00;;;;;;;8.49;100.00;97663.78;5154019;27;20193;-52
2023/12/11 06:26:54;;;;;;;0.10;0.10;;;;;;;8.49;100.00;97670.84;5153943;27;20216;-53
2023/12/11 06:29:41;;;;;;;0.10;0.10;;;;;;;8.42;100.00;97665.22;5152544;27;20238;-51
2023/12/11 06:32:28;;;;;;;0.10;0.10;;;;;;;8.29;100.00;97667.94;5154199;27;20266;-51
2023/12/11 06:35:15;;;;;;;0.10;0.10;;;;;;;8.23;100.00;97664.97;5153869;27;20196;-52
2023/12/11 06:38:03;;;;;;;0.00;0.00;;;;;;;8.23;100.00;97670.25;5153603;27;20259;-52
2023/12/11 06:40:50;;;;;;;0.00;0.00;;;;;;;8.24;100.00;97669.28;5153828;27;20192;-51
2023/12/11 06:43:37;;;;;;;0.10;0.10;;;;;;;8.24;100.00;97674.56;5153826;27;20238;-51
2023/12/11 06:46:25;;;;;;;0.00;0.00;;;;;;;8.21;100.00;97682.72;5155918;27;20189;-51
2023/12/11 06:49:11;;;;;;;0.00;0.00;;;;;;;8.14;100.00;97684.16;5157413;27;20256;-51
2023/12/11 06:51:58;;;;;;;0.10;0.10;;;;;;;8.12;100.00;97678.16;5157351;27;20193;-51
2023/12/11 06:54:47;;;;;;;0.10;0.10;;;;;;;8.27;100.00;97669.03;5157296;27;20204;-51
2023/12/11 06:57:33;;;;;;;0.00;0.00;;;;;;;8.31;100.00;97670.50;5157047;27;20212;-51
2023/12/11 07:00:21;;;;;;;0.00;0.00;;;;;;;8.39;100.00;97652.25;5155920;27;20205;-51
2023/12/11 07:03:08;;;;;;;0.10;0.10;;;;;;;8.48;100.00;97653.34;5157063;27;20635;-51
2023/12/11 07:05:55;;;;;;;0.00;0.00;;;;;;;8.58;100.00;97649.84;5157109;27;20188;-54
2023/12/11 07:08:42;;;;;;;0.00;0.00;;;;;;;8.95;100.00;97638.94;5157145;27;20193;-53
2023/12/11 07:11:30;;;;;;;0.10;0.10;;;;;;;9.07;100.00;97647.66;5157100;27;20201;-54
2023/12/11 07:14:18;;;;;;;0.00;0.00;;;;;;;9.42;100.00;97632.38;5155653;27;20251;-54
2023/12/11 07:17:05;;;;;;;0.10;0.10;;;;;;;9.70;100.00;97622.13;5156988;27;20240;-54
2023/12/11 07:19:51;;;;;;;0.03;0.03;;;;;;;9.57;100.00;97619.69;5156875;27;20241;-54
2023/12/11 07:22:38;;;;;;;0.00;0.00;;;;;;;9.52;100.00;97618.38;5156660;27;20195;-53
2023/12/11 07:25:25;;;;;;;0.00;0.00;;;;;;;9.65;100.00;97625.16;5156748;27;20268;-54
2023/12/11 07:28:14;;;;;;;0.00;0.00;;;;;;;9.77;100.00;97628.56;5156416;27;20311;-53
2023/12/11 07:31:02;;;;;;;0.00;0.00;;;;;;;9.75;100.00;97620.75;5155225;27;20189;-53
2023/12/11 07:33:49;;;;;;;0.00;0.00;;;;;;;9.72;100.00;97613.06;5156647;27;20192;-54
2023/12/11 07:36:36;;;;;;;0.00;0.00;;;;;;;9.79;100.00;97612.56;5156633;27;20197;-53
2023/12/11 07:39:22;;;;;;;0.00;0.00;;;;;;;9.74;100.00;97618.22;5156346;27;20193;-54
2023/12/11 07:42:09;;;;;;;0.00;0.00;;;;;;;9.46;100.00;97619.75;5156469;27;20184;-54
2023/12/11 07:44:57;;;;;;;0.00;0.00;;;;;;;9.78;100.00;97618.81;5154895;27;20205;-54
2023/12/11 07:47:44;;;;;;;0.00;0.00;;;;;;;10.04;100.00;97620.91;5156206;27;20189;-54
2023/12/11 07:50:32;;;;;;;0.00;0.00;;;;;;;10.06;100.00;97620.78;5156090;27;20189;-51
2023/12/11 07:53:19;;;;;;;0.00;0.00;;;;;;;10.20;100.00;97623.03;5156247;27;20262;-52
2023/12/11 07:56:07;;;;;;;0.10;0.10;;;;;;;10.29;100.00;97621.44;5155728;27;20193;-51
2023/12/11 07:58:54;;;;;;;0.10;0.10;;;;;;;10.14;100.00;97613.00;5156112;27;20208;-51
2023/12/11 08:01:42;;;;;;;0.00;0.00;;;;;;;9.84;100.00;97619.13;5156006;27;20303;-51
2023/12/11 08:04:29;;;;;;;0.00;0.00;;;;;;;9.47;100.00;97629.34;5155909;27;20200;-51
2023/12/11 08:07:17;;;;;;;0.10;0.10;;;;;;;9.48;100.00;97632.84;5155876;27;20189;-51
2023/12/11 08:10:04;;;;;;;0.00;0.00;;;;;;;9.42;100.00;97627.09;5155994;27;20196;-52
2023/12/11 08:12:51;;;;;;;0.10;0.10;;;;;;;9.23;100.00;97629.59;5155732;27;20192;-51
2023/12/11 08:15:39;;;;;;;0.10;0.10;;;;;;;9.50;100.00;97644.94;5154722;27;20193;-51
2023/12/11 08:18:27;;;;;;;0.10;0.10;;;;;;;9.86;100.00;97630.41;5155623;27;20227;-52
2023/12/11 08:21:14;;;;;;;0.10;0.10;;;;;;;10.04;100.00;97631.47;5155724;27;20193;-51
2023/12/11 08:24:01;;;;;;;0.00;0.00;;;;;;;10.34;100.00;97627.19;5155629;27;20188;-51
2023/12/11 08:26:48;;;;;;;0.10;0.10;;;;;;;10.54;100.00;97622.78;5154750;27;20313;-51
2023/12/11 08:29:35;;;;;;;0.00;0.00;;;;;;;10.68;100.00;97622.38;5154478;27;20224;-52
2023/12/11 08:32:22;;;;;;;0.00;0.00;;;;;;;10.68;100.00;97617.06;5155151;27;20196;-51
2023/12/11 08:35:11;;;;;;;0.00;0.00;;;;;;;10.65;100.00;97621.81;5155517;27;20196;-51
2023/12/11 08:37:57;;;;;;;0.10;0.10;;;;;;;10.67;100.00;97619.88;5154987;27;20213;-51
2023/12/11 08:40:44;;;;;;;0.10;0.10;;;;;;;10.73;100.00;97625.47;5155030;27;20208;-51
2023/12/11 08:43:31;;;;;;;0.00;0.00;;;;;;;10.67;100.00;97619.88;5155420;27;20314;-51
2023/12/11 08:46:18;;;;;;;0.10;0.10;;;;;;;10.70;100.00;97627.53;5153478;27;20720;-51
2023/12/11 08:49:05;;;;;;;0.07;0.07;;;;;;;10.67;100.00;97620.69;5155331;27;20189;-51
2023/12/11 08:51:53;;;;;;;0.00;0.00;;;;;;;10.71;100.00;97623.91;5155219;27;20188;-51
2023/12/11 08:54:40;;;;;;;0.10;0.10;;;;;;;10.70;100.00;97615.13;5154679;27;20196;-51
2023/12/11 08:57:28;;;;;;;0.00;0.00;;;;;;;10.65;100.00;97635.88;5154835;27;20337;-51
2023/12/11 09:00:16;;;;;;;0.00;0.00;;;;;;;10.60;100.00;97638.94;5153937;27;20314;-51
2023/12/11 09:03:03;;;;;;;0.00;0.00;;;;;;;10.65;100.00;97638.53;5154606;27;20184;-51
2023/12/11 09:05:50;;;;;;;0.00;0.00;;;;;;;10.55;100.00;97635.88;5154434;27;20231;-54
2023/12/11 09:08:40;;;;;;;0.10;0.10;;;;;;;10.58;100.00;97637.41;5154250;27;20303;-53
2023/12/11 09:11:27;;;;;;;0.00;0.00;;;;;;;10.65;100.00;97641.19;5154546;27;20690;-54
2023/12/11 09:14:14;;;;;;;0.00;0.00;;;;;;;10.70;100.00;97646.06;5153469;27;20678;-53
2023/12/11 09:17:01;;;;;;;0.00;0.00;;;;;;;10.86;100.00;97639.25;5138903;27;21103;-53
2023/12/11 09:19:48;;;;;;;0.10;0.10;;;;;;;10.95;100.00;97644.72;5154527;27;20196;-53
2023/12/11 09:22:41;;;;;;;0.10;0.10;;;;;;;10.89;100.00;97648.75;5154706;27;20246;-53
2023/12/11 09:25:29;;;;;;;0.00;0.00;;;;;;;10.98;100.00;97644.44;5154665;27;20189;-53
2023/12/11 09:28:17;;;;;;;0.00;0.00;;;;;;;11.03;100.00;97645.69;5154256;27;20229;-54
2023/12/11 09:31:04;;;;;;;0.00;0.00;;;;;;;11.13;100.00;97635.09;5153344;27;20234;-54
2023/12/11 09:33:53;;;;;;;0.00;0.00;;;;;;;11.17;100.00;97634.69;5154505;27;20254;-54
2023/12/11 09:36:40;;;;;;;0.00;0.00;;;;;;;11.15;100.00;97638.44;5154473;27;20196;-53
2023/12/11 09:39:27;;;;;;;0.00;0.00;;;;;;;11.16;100.00;97635.66;5154149;27;20208;-53
2023/12/11 09:42:15;;;;;;;0.10;0.10;;;;;;;11.27;100.00;97639.97;5154306;27;20189;-53
2023/12/11 09:45:03;;;;;;;0.10;0.10;;;;;;;11.27;100.00;97639.13;5153176;27;20239;-53
2023/12/11 09:47:52;;;;;;;0.00;0.00;;;;;;;11.28;100.00;97646.13;5154482;27;20188;-53
2023/12/11 09:50:56;;;;;;;0.00;0.00;;;;;;;11.27;100.00;97633.84;5154240;27;20183;-53
2023/12/11 09:53:44;;;;;;;0.00;0.00;;;;;;;11.27;100.00;97642.63;5154401;27;20230;-53
2023/12/11 09:56:32;;;;;;;0.00;0.00;;;;;;;11.33;100.00;97649.19;5154218;27;20283;-53
2023/12/11 09:59:21;;;;;;;0.00;0.00;;;;;;;11.31;100.00;97635.25;5152349;27;20277;-53
2023/12/11 10:02:12;;;;;;;0.07;0.07;;;;;;;11.34;100.00;97642.91;5154235;27;20197;-53
2023/12/11 10:05:04;;;;;;;0.03;0.03;;;;;;;11.25;100.00;97641.94;5154175;27;20264;-54
2023/12/11 10:07:50;;;;;;;0.00;0.00;;;;;;;11.24;100.00;97648.22;5154157;27;20208;-53
2023/12/11 10:10:38;;;;;;;0.00;0.00;;;;;;;11.17;100.00;97649.75;5153651;27;20204;-53
2023/12/11 10:13:25;;;;;;;0.00;0.00;;;;;;;11.08;100.00;97643.47;5154034;27;20250;-54
2023/12/11 10:19:08;;;;;;;0.10;0.10;;;;;;;11.00;100.00;97664.53;5131193;27;20538;-53
2023/12/11 10:21:55;;;;;;;0.10;0.10;;;;;;;10.74;100.00;97658.91;5131232;27;20201;-52
2023/12/11 10:24:43;;;;;;;0.10;0.10;;;;;;;10.66;100.00;97677.28;5130919;27;20303;-52
2023/12/11 10:27:29;;;;;;;0.00;0.00;;;;;;;10.58;100.00;97675.28;5130966;27;20211;-52
2023/12/11 10:30:18;;;;;;;0.00;0.00;;;;;;;10.57;100.00;97675.44;5129638;28;20267;-53
2023/12/11 10:33:05;;;;;;;0.10;0.10;;;;;;;10.57;100.00;97680.72;5131066;28;20210;-53
2023/12/11 10:35:54;;;;;;;0.00;0.00;;;;;;;10.58;100.00;97687.69;5130978;27;20276;-52
2023/12/11 10:38:41;;;;;;;0.03;0.03;;;;;;;10.69;100.00;97679.63;5130655;27;20350;-53
2023/12/11 10:41:28;;;;;;;0.00;0.00;;;;;;;10.72;100.00;97681.22;5130687;28;20185;-52
2023/12/11 10:44:23;;;;;;;0.00;0.00;;;;;;;10.70;100.00;97685.78;5129419;27;20667;-53
2023/12/11 10:47:13;;;;;;;0.10;0.10;;;;;;;10.76;100.00;97688.72;5130630;27;20189;-53
2023/12/11 10:50:02;;;;;;;0.00;0.00;;;;;;;10.79;100.00;97688.44;5130704;27;20189;-52
2023/12/11 10:52:51;;;;;;;0.00;0.00;;;;;;;10.91;100.00;97689.19;5130776;27;20193;-52
2023/12/11 10:55:38;;;;;;;0.10;0.10;;;;;;;10.90;100.00;97700.72;5130310;27;20193;-53
2023/12/11 10:58:26;;;;;;;0.00;0.00;;;;;;;10.99;100.00;97691.97;5129199;28;20213;-53
2023/12/11 11:01:14;;;;;;;0.00;0.00;;;;;;;11.06;100.00;97698.41;5129129;28;20193;-53
2023/12/11 11:04:01;;;;;;;0.00;0.00;;;;;;;11.20;100.00;97691.06;5130213;27;20198;-53
2023/12/11 11:06:55;;;;;;;0.00;0.00;;;;;;;11.23;100.00;97686.28;5130115;28;20269;-53
2023/12/11 11:09:59;;;;;;;0.10;0.10;;;;;;;11.31;100.00;97659.09;5130566;27;20196;-53
2023/12/11 11:12:53;;;;;;;0.07;0.07;;;;;;;11.26;100.00;97661.31;5130065;27;20185;-52
2023/12/11 11:15:40;;;;;;;0.10;0.10;;;;;;;11.25;100.00;97665.78;5128747;28;20267;-53
2023/12/11 11:18:27;;;;;;;0.00;0.00;;;;;;;11.20;100.00;97653.94;5129620;27;20364;-53
2023/12/11 11:21:14;;;;;;;0.10;0.10;;;;;;;11.20;100.00;97677.81;5130108;28;20189;-53
2023/12/11 11:24:01;;;;;;;0.10;0.10;;;;;;;11.13;100.00;97662.44;5130129;27;20269;-52
2023/12/11 11:26:50;;;;;;;0.10;0.10;;;;;;;11.09;100.00;97676.94;5128706;28;20264;-53
2023/12/11 11:29:40;;;;;;;0.03;0.03;;;;;;;10.99;100.00;97691.13;5119590;28;20270;-53
2023/12/11 11:32:53;;;;;;;0.00;0.00;;;;;;;11.03;100.00;97689.91;5115309;28;20214;-53
2023/12/11 11:35:48;;;;;;;0.00;0.00;;;;;;;11.16;100.00;97695.78;5115784;28;20206;-53
2023/12/11 11:38:55;;;;;;;0.00;0.00;;;;;;;11.11;100.00;97698.00;5115565;28;20226;-53
2023/12/11 11:41:44;;;;;;;0.10;0.10;;;;;;;11.09;100.00;97684.88;5115527;28;20210;-53
2023/12/11 11:44:32;;;;;;;0.00;0.00;;;;;;;11.09;100.00;97699.94;5114424;28;20553;-53
2023/12/11 11:47:19;;;;;;;0.07;0.07;;;;;;;11.07;100.00;97705.38;5115667;28;20193;-53
2023/12/11 11:50:07;;;;;;;0.10;0.10;;;;;;;11.21;100.00;97705.97;5115672;28;20218;-53
2023/12/11 11:53:00;;;;;;;0.00;0.00;;;;;;;11.26;100.00;97691.31;5115993;28;20202;-53
2023/12/11 11:55:47;;;;;;;0.00;0.00;;;;;;;11.22;100.00;97687.28;5115840;28;20194;-52
2023/12/11 11:58:34;;;;;;;0.10;0.10;;;;;;;11.41;100.00;97681.16;5115500;28;20713;-52
2023/12/11 12:01:22;;;;;;;0.07;0.07;;;;;;;11.41;100.00;97687.28;5115682;28;20198;-53
2023/12/11 12:04:09;;;;;;;0.00;0.00;;;;;;;11.55;100.00;97683.34;5115679;28;20194;-53
2023/12/11 12:06:58;;;;;;;0.10;0.10;;;;;;;11.52;100.00;97672.22;5115421;28;20202;-53
2023/12/11 12:09:50;;;;;;;0.00;0.00;;;;;;;11.56;100.00;97671.78;5115317;28;20268;-53
2023/12/11 12:12:37;;;;;;;0.10;0.10;;;;;;;11.58;100.00;97667.19;5115331;28;20244;-53
2023/12/11 12:15:25;;;;;;;0.10;0.10;;;;;;;11.55;100.00;97671.91;5114002;28;20213;-53
2023/12/11 12:18:13;;;;;;;0.00;0.00;;;;;;;11.41;100.00;97671.38;5114955;28;20221;-52
2023/12/11 12:21:04;;;;;;;0.10;0.10;;;;;;;11.76;100.00;97675.22;5115092;28;20289;-53
2023/12/11 12:24:03;;;;;;;0.00;0.00;;;;;;;12.00;100.00;97677.47;5115094;28;20201;-52
2023/12/11 12:26:53;;;;;;;0.10;0.10;;;;;;;12.18;100.00;97669.59;5114980;28;20194;-53
2023/12/11 12:29:42;;;;;;;0.00;0.00;;;;;;;12.33;100.00;97670.78;5113543;28;20206;-53
2023/12/11 12:32:29;;;;;;;0.10;0.10;;;;;;;12.56;100.00;97685.38;5114919;28;20396;-53
2023/12/11 12:35:19;;;;;;;0.10;0.10;;;;;;;12.32;100.00;97669.13;5115232;28;20190;-52
2023/12/11 12:38:07;;;;;;;0.07;0.07;;;;;;;12.45;100.00;97676.75;5114745;28;20222;-53
2023/12/11 12:40:54;;;;;;;0.00;0.00;;;;;;;13.01;100.00;97673.09;5113736;28;20202;-53
2023/12/11 12:43:42;;;;;;;0.00;0.00;;;;;;;13.60;100.00;97687.63;5113618;28;20586;-53
2023/12/11 12:46:38;;;;;;;0.10;0.10;;;;;;;13.77;100.00;97677.97;5114952;28;20190;-53
2023/12/11 12:49:25;;;;;;;0.00;0.00;;;;;;;15.07;100.00;97674.19;5114694;28;20194;-53
2023/12/11 12:52:22;;;;;;;0.10;0.10;;;;;;;14.92;100.00;97682.97;5114644;28;20194;-54
2023/12/11 12:55:09;;;;;;;0.10;0.10;;;;;;;16.65;94.51;97680.97;5114634;28;20271;-53
2023/12/11 12:57:57;;;;;;;0.10;0.10;;;;;;;18.69;74.55;97674.94;5114455;28;20679;-53
2023/12/11 13:00:44;;;;;;;0.10;0.10;;;;;;;18.04;74.78;97668.38;5111906;28;20195;-53
2023/12/11 13:03:31;;;;;;;0.00;0.00;;;;;;;18.97;68.01;97683.13;5114256;28;20249;-53
2023/12/11 13:06:25;;;;;;;0.10;0.10;;;;;;;18.59;67.15;97685.91;5114240;28;20193;-53
2023/12/11 13:09:28;;;;;;;0.10;0.10;;;;;;;19.37;62.00;97695.16;5113957;28;20703;-53